createdAt,value
2019-04-28T00:00:03.963Z,94.71
2019-04-28T00:02:36.184Z,94.71
2019-04-28T00:03:04.779Z,94.54
2019-04-28T00:04:05.718Z,94.60
2019-04-28T00:05:04.167Z,94.23
2019-04-28T00:06:03.740Z,94.81
2019-04-28T00:07:03.677Z,94.65
2019-04-28T00:08:03.829Z,94.92
2019-04-28T00:09:03.701Z,95.37
2019-04-28T00:10:14.257Z,95.53
2019-04-28T00:11:06.459Z,95.17
2019-04-28T00:12:03.747Z,95.32
2019-04-28T00:13:05.378Z,95.12
2019-04-28T00:14:03.648Z,94.75
2019-04-28T00:15:03.896Z,94.92
2019-04-28T00:16:03.618Z,95.06
2019-04-28T00:17:04.429Z,94.71
2019-04-28T00:18:04.211Z,94.96
2019-04-28T00:19:04.661Z,94.75
2019-04-28T00:20:04.198Z,94.54
2019-04-28T00:21:04.428Z,94.85
2019-04-28T00:22:03.618Z,94.54
2019-04-28T00:23:04.194Z,94.92
2019-04-28T00:24:04.716Z,95.37
2019-04-28T00:25:03.565Z,95.57
2019-04-28T00:26:03.624Z,95.22
2019-04-28T00:27:03.620Z,95.32
2019-04-28T00:28:03.546Z,95.27
2019-04-28T00:29:03.590Z,94.92
2019-04-28T00:30:03.694Z,94.96
2019-04-28T00:31:03.549Z,94.85
2019-04-28T00:32:04.558Z,94.92
2019-04-28T00:33:03.567Z,94.92
2019-04-28T00:34:04.469Z,94.75
2019-04-28T00:35:03.530Z,94.96
2019-04-28T00:36:03.509Z,94.75
2019-04-28T00:37:03.584Z,94.96
2019-04-28T00:38:06.431Z,94.96
2019-04-28T00:39:04.489Z,94.65
2019-04-28T00:40:04.528Z,94.75
2019-04-28T00:41:03.485Z,94.75
2019-04-28T00:42:03.478Z,94.75
2019-04-28T00:43:03.528Z,94.54
2019-04-28T00:44:03.439Z,94.65
2019-04-28T00:45:03.533Z,94.34
2019-04-28T00:46:03.430Z,94.85
2019-04-28T00:47:03.430Z,94.60
2019-04-28T00:48:03.414Z,94.54
2019-04-28T00:49:03.416Z,94.96
2019-04-28T00:50:03.377Z,94.34
2019-04-28T00:51:03.637Z,95.06
2019-04-28T00:52:03.457Z,94.71
2019-04-28T00:55:01.186Z,94.44
2019-04-28T00:55:39.598Z,94.75
2019-04-28T00:56:42.027Z,94.13
2019-04-28T00:57:40.995Z,94.40
2019-04-28T00:58:41.684Z,94.75
2019-04-28T00:59:52.146Z,94.34
2019-04-28T01:00:41.631Z,94.44
2019-04-28T01:01:40.693Z,94.23
2019-04-28T01:02:41.248Z,94.54
2019-04-28T01:03:42.084Z,94.23
2019-04-28T01:04:41.271Z,94.34
2019-04-28T01:05:41.183Z,94.23
2019-04-28T01:06:40.575Z,94.54
2019-04-28T01:07:41.388Z,94.54
2019-04-28T01:08:39.634Z,94.54
2019-04-28T01:09:41.571Z,94.34
2019-04-28T01:10:41.056Z,94.50
2019-04-28T01:11:41.411Z,94.54
2019-04-28T01:12:41.131Z,94.60
2019-04-28T01:13:41.991Z,94.34
2019-04-28T01:14:40.976Z,94.54
2019-04-28T01:15:39.746Z,94.85
2019-04-28T01:16:40.547Z,94.96
2019-04-28T01:17:39.843Z,94.75
2019-04-28T01:18:40.610Z,94.85
2019-04-28T01:19:39.920Z,94.54
2019-04-28T01:22:15.075Z,94.23
2019-04-28T01:23:16.268Z,94.96
2019-04-28T01:24:32.109Z,94.34
2019-04-28T01:25:15.960Z,95.06
2019-04-28T01:26:15.935Z,94.44
2019-04-28T01:27:15.985Z,94.34
2019-04-28T01:28:15.951Z,94.75
2019-04-28T01:29:16.103Z,94.75
2019-04-28T01:30:16.871Z,94.54
2019-04-28T01:31:15.998Z,94.34
2019-04-28T01:32:16.025Z,94.44
2019-04-28T01:33:15.926Z,94.75
2019-04-28T01:34:15.952Z,94.65
2019-04-28T01:35:16.013Z,94.65
2019-04-28T01:36:15.895Z,94.54
2019-04-28T01:37:16.041Z,94.44
2019-04-28T01:38:15.890Z,94.44
2019-04-28T01:39:15.929Z,94.44
2019-04-28T01:40:15.920Z,94.65
2019-04-28T01:41:15.876Z,94.54
2019-04-28T01:42:15.807Z,94.44
2019-04-28T01:43:15.868Z,94.23
2019-04-28T01:44:15.803Z,94.69
2019-04-28T01:45:15.838Z,94.44
2019-04-28T01:46:15.833Z,94.38
2019-04-28T01:47:15.858Z,94.48
2019-04-28T01:48:15.862Z,94.79
2019-04-28T01:49:15.845Z,94.23
2019-04-28T01:50:15.888Z,94.18
2019-04-28T01:51:15.760Z,93.66
2019-04-28T01:52:15.799Z,93.87
2019-04-28T01:53:15.785Z,93.82
2019-04-28T01:54:16.361Z,93.76
2019-04-28T01:55:15.727Z,93.76
2019-04-28T01:56:16.532Z,93.76
2019-04-28T01:57:15.844Z,93.45
2019-04-28T01:58:16.535Z,93.66
2019-04-28T01:59:15.798Z,93.62
2019-04-28T02:00:22.910Z,93.45
2019-04-28T02:01:17.730Z,93.97
2019-04-28T02:02:15.770Z,93.66
2019-04-28T02:03:15.709Z,93.55
2019-04-28T02:04:15.715Z,93.76
2019-04-28T02:05:15.803Z,93.45
2019-04-28T02:06:15.731Z,93.66
2019-04-28T02:07:15.645Z,93.55
2019-04-28T02:08:15.751Z,93.04
2019-04-28T02:09:15.773Z,93.97
2019-04-28T02:10:15.662Z,93.66
2019-04-28T02:11:15.775Z,93.35
2019-04-28T02:12:15.650Z,93.45
2019-04-28T02:13:15.674Z,93.24
2019-04-28T02:14:15.647Z,93.24
2019-04-28T02:15:15.690Z,93.04
2019-04-28T02:16:15.616Z,93.55
2019-04-28T02:17:15.622Z,93.35
2019-04-28T02:18:15.671Z,93.45
2019-04-28T02:19:15.626Z,93.66
2019-04-28T02:20:15.598Z,93.24
2019-04-28T02:21:16.585Z,93.35
2019-04-28T02:22:15.606Z,93.45
2019-04-28T02:23:15.551Z,93.87
2019-04-28T02:24:16.587Z,93.35
2019-04-28T02:25:15.656Z,93.87
2019-04-28T02:26:15.577Z,93.66
2019-04-28T02:27:15.540Z,92.93
2019-04-28T02:28:16.484Z,92.42
2019-04-28T02:29:15.648Z,93.35
2019-04-28T02:30:15.592Z,93.66
2019-04-28T02:31:15.623Z,93.04
2019-04-28T02:32:15.588Z,92.83
2019-04-28T02:33:15.558Z,92.52
2019-04-28T02:34:15.582Z,92.52
2019-04-28T02:35:15.574Z,92.63
2019-04-28T02:36:15.719Z,92.63
2019-04-28T02:37:15.541Z,93.04
2019-04-28T02:38:15.556Z,92.52
2019-04-28T02:39:15.657Z,93.14
2019-04-28T02:40:15.512Z,92.42
2019-04-28T02:41:15.527Z,93.04
2019-04-28T02:42:15.537Z,92.63
2019-04-28T02:43:15.504Z,92.72
2019-04-28T02:44:15.544Z,92.93
2019-04-28T02:45:15.511Z,92.32
2019-04-28T02:46:15.564Z,93.04
2019-04-28T02:47:15.437Z,92.32
2019-04-28T02:48:15.417Z,92.42
2019-04-28T02:49:15.440Z,93.04
2019-04-28T02:50:15.540Z,92.52
2019-04-28T02:51:15.532Z,92.42
2019-04-28T02:52:15.396Z,92.32
2019-04-28T02:53:15.381Z,92.63
2019-04-28T02:54:15.422Z,92.87
2019-04-28T02:55:15.413Z,92.52
2019-04-28T02:56:15.422Z,92.72
2019-04-28T02:57:15.385Z,92.83
2019-04-28T02:58:15.388Z,92.93
2019-04-28T02:59:15.365Z,92.63
2019-04-28T03:00:15.330Z,92.11
2019-04-28T03:01:24.939Z,93.04
2019-04-28T03:02:17.367Z,92.32
2019-04-28T03:03:16.002Z,92.52
2019-04-28T03:04:15.348Z,92.52
2019-04-28T03:05:15.335Z,92.15
2019-04-28T03:06:15.343Z,91.80
2019-04-28T03:07:15.373Z,92.32
2019-04-28T03:08:15.280Z,92.25
2019-04-28T03:09:15.407Z,92.32
2019-04-28T03:10:15.281Z,92.32
2019-04-28T03:11:15.278Z,92.32
2019-04-28T03:12:15.261Z,92.57
2019-04-28T03:13:16.259Z,92.57
2019-04-28T03:14:15.258Z,92.83
2019-04-28T03:15:15.229Z,92.83
2019-04-28T03:16:15.236Z,92.25
2019-04-28T03:17:15.240Z,92.15
2019-04-28T03:18:15.274Z,92.25
2019-04-28T03:19:15.231Z,92.25
2019-04-28T03:20:15.245Z,91.80
2019-04-28T03:21:15.200Z,92.25
2019-04-28T03:22:15.182Z,92.67
2019-04-28T03:23:15.196Z,92.57
2019-04-28T03:24:15.196Z,93.08
2019-04-28T03:25:15.212Z,92.67
2019-04-28T03:26:15.204Z,92.11
2019-04-28T03:27:15.152Z,92.97
2019-04-28T03:28:15.218Z,92.83
2019-04-28T03:29:15.303Z,92.46
2019-04-28T03:30:15.177Z,92.83
2019-04-28T03:31:48.423Z,92.67
2019-04-28T03:32:32.403Z,93.08
2019-04-28T03:33:18.855Z,92.87
2019-04-28T03:34:22.878Z,92.46
2019-04-28T03:35:17.036Z,92.57
2019-04-28T03:36:16.032Z,92.87
2019-04-28T03:37:16.127Z,92.97
2019-04-28T03:38:15.118Z,92.25
2019-04-28T03:39:15.104Z,92.97
2019-04-28T03:40:15.112Z,93.08
2019-04-28T03:41:15.089Z,92.25
2019-04-28T03:42:15.127Z,92.97
2019-04-28T03:43:15.037Z,93.08
2019-04-28T03:44:16.058Z,92.67
2019-04-28T03:45:15.051Z,92.57
2019-04-28T03:46:15.045Z,92.87
2019-04-28T03:47:15.106Z,92.46
2019-04-28T03:48:15.074Z,92.25
2019-04-28T03:49:15.069Z,92.36
2019-04-28T03:50:15.055Z,92.67
2019-04-28T03:51:21.167Z,92.77
2019-04-28T03:52:16.090Z,92.15
2019-04-28T03:53:16.459Z,92.15
2019-04-28T03:54:14.986Z,92.77
2019-04-28T03:55:15.023Z,92.67
2019-04-28T03:56:15.017Z,92.05
2019-04-28T03:57:15.070Z,92.67
2019-04-28T03:58:15.979Z,92.57
2019-04-28T03:59:16.050Z,92.81
2019-04-28T04:00:15.048Z,92.97
2019-04-28T04:01:15.604Z,92.87
2019-04-28T04:02:14.985Z,92.87
2019-04-28T04:03:15.142Z,92.30
2019-04-28T04:04:14.969Z,93.12
2019-04-28T04:05:14.975Z,92.81
2019-04-28T04:06:14.915Z,92.50
2019-04-28T04:07:14.948Z,92.40
2019-04-28T04:08:14.990Z,92.81
2019-04-28T04:09:15.526Z,92.50
2019-04-28T04:10:14.979Z,93.12
2019-04-28T04:11:14.993Z,92.81
2019-04-28T04:12:15.026Z,92.81
2019-04-28T04:13:14.899Z,93.23
2019-04-28T04:14:14.937Z,93.12
2019-04-28T04:15:15.022Z,93.43
2019-04-28T04:16:15.988Z,93.12
2019-04-28T04:17:14.971Z,92.91
2019-04-28T04:18:14.902Z,93.29
2019-04-28T04:19:14.885Z,93.02
2019-04-28T04:20:14.893Z,93.12
2019-04-28T04:21:14.995Z,93.33
2019-04-28T04:22:14.853Z,93.02
2019-04-28T04:23:14.818Z,92.81
2019-04-28T04:24:14.907Z,93.12
2019-04-28T04:25:14.861Z,92.91
2019-04-28T04:26:14.918Z,93.02
2019-04-28T04:27:14.812Z,93.23
2019-04-28T04:28:14.781Z,92.61
2019-04-28T04:29:14.833Z,92.71
2019-04-28T04:30:14.851Z,92.50
2019-04-28T04:31:14.833Z,92.50
2019-04-28T04:32:22.619Z,92.77
2019-04-28T04:33:16.763Z,92.61
2019-04-28T04:34:14.800Z,92.40
2019-04-28T04:35:14.813Z,91.53
2019-04-28T04:36:14.753Z,91.99
2019-04-28T04:37:14.740Z,91.84
2019-04-28T04:38:14.793Z,92.77
2019-04-28T04:39:14.752Z,92.15
2019-04-28T04:40:14.768Z,92.05
2019-04-28T04:41:14.729Z,92.05
2019-04-28T04:42:14.754Z,91.42
2019-04-28T04:43:14.749Z,91.94
2019-04-28T04:44:14.721Z,92.05
2019-04-28T04:45:14.785Z,91.42
2019-04-28T04:46:14.778Z,91.42
2019-04-28T04:47:14.767Z,92.05
2019-04-28T04:48:15.771Z,91.53
2019-04-28T04:49:15.601Z,91.94
2019-04-28T04:50:14.728Z,91.84
2019-04-28T04:51:14.741Z,91.42
2019-04-28T04:52:14.714Z,91.74
2019-04-28T04:53:14.640Z,91.74
2019-04-28T04:54:15.552Z,91.38
2019-04-28T04:55:14.750Z,91.22
2019-04-28T04:56:14.714Z,91.49
2019-04-28T04:57:14.667Z,91.17
2019-04-28T04:58:14.669Z,91.28
2019-04-28T04:59:14.612Z,89.83
2019-04-28T05:00:14.665Z,90.14
2019-04-28T05:01:14.666Z,89.73
2019-04-28T05:02:26.543Z,89.73
2019-04-28T05:03:16.610Z,89.94
2019-04-28T05:05:02.908Z,89.07
2019-04-28T05:05:14.625Z,89.28
2019-04-28T05:06:14.549Z,88.96
2019-04-28T05:10:51.413Z,87.99
2019-04-28T05:11:26.446Z,87.54
2019-04-28T05:12:42.530Z,87.37
2019-04-28T05:13:27.511Z,86.41
2019-04-28T05:14:29.783Z,86.92
2019-04-28T05:15:27.646Z,87.34
2019-04-28T05:16:27.574Z,85.81
2019-04-28T05:17:27.566Z,85.11
2019-04-28T05:18:27.534Z,83.73
2019-04-28T05:19:27.547Z,82.87
2019-04-28T05:20:27.640Z,82.56
2019-04-28T05:21:31.067Z,82.09
2019-04-28T05:22:29.960Z,82.70
2019-04-28T05:23:27.520Z,82.70
2019-04-28T05:24:27.532Z,82.40
2019-04-28T05:25:30.875Z,82.29
2019-04-28T05:26:30.048Z,82.60
2019-04-28T05:28:19.723Z,82.81
2019-04-28T05:28:30.570Z,81.98
2019-04-28T05:29:47.353Z,82.67
2019-04-28T05:30:27.418Z,82.09
2019-04-28T05:31:27.448Z,81.92
2019-04-28T05:32:41.662Z,82.23
2019-04-28T05:33:33.369Z,82.43
2019-04-28T05:34:29.704Z,82.74
2019-04-28T05:35:29.316Z,82.70
2019-04-28T05:36:27.367Z,82.46
2019-04-28T05:37:27.412Z,82.04
2019-04-28T05:38:27.404Z,76.55
2019-04-28T05:39:27.392Z,74.08
2019-04-28T05:40:27.407Z,72.24
2019-04-28T05:41:27.343Z,70.71
2019-04-28T05:42:27.365Z,70.81
2019-04-28T05:43:27.375Z,66.70
2019-04-28T05:44:27.362Z,67.00
2019-04-28T05:45:27.431Z,69.11
2019-04-28T05:46:27.321Z,71.39
2019-04-28T05:47:27.308Z,72.55
2019-04-28T05:48:27.329Z,72.96
2019-04-28T05:49:27.305Z,75.08
2019-04-28T05:50:27.262Z,77.03
2019-04-28T05:51:27.337Z,79.23
2019-04-28T05:52:27.268Z,79.99
2019-04-28T05:53:27.320Z,81.23
2019-04-28T05:54:59.813Z,81.91
2019-04-28T05:55:27.195Z,81.91
2019-04-28T05:56:27.195Z,81.05
2019-04-28T05:57:27.203Z,80.36
2019-04-28T05:58:27.182Z,80.26
2019-04-28T05:59:27.176Z,80.16
2019-04-28T06:00:27.166Z,81.09
2019-04-28T06:01:27.151Z,81.67
2019-04-28T06:02:27.156Z,82.67
2019-04-28T06:03:27.134Z,82.46
2019-04-28T06:04:27.131Z,82.35
2019-04-28T06:05:27.123Z,82.56
2019-04-28T06:06:27.111Z,82.87
2019-04-28T06:07:27.126Z,82.67
2019-04-28T06:08:27.099Z,82.29
2019-04-28T06:09:27.098Z,82.70
2019-04-28T06:10:27.084Z,83.32
2019-04-28T06:11:27.132Z,82.67
2019-04-28T06:12:27.116Z,82.29
2019-04-28T06:13:27.090Z,82.50
2019-04-28T06:14:27.091Z,82.23
2019-04-28T06:15:27.081Z,82.78
2019-04-28T06:16:27.073Z,83.87
2019-04-28T06:17:27.069Z,84.05
2019-04-28T06:18:27.072Z,83.32
2019-04-28T06:19:27.057Z,82.50
2019-04-28T06:20:27.041Z,83.94
2019-04-28T06:21:28.046Z,82.15
2019-04-28T06:22:27.049Z,82.97
2019-04-28T06:23:27.041Z,82.53
2019-04-28T06:24:27.038Z,82.01
2019-04-28T06:25:27.025Z,81.02
2019-04-28T06:26:27.014Z,81.61
2019-04-28T06:27:27.007Z,82.64
2019-04-28T06:28:27.008Z,83.42
2019-04-28T06:29:26.988Z,83.59
2019-04-28T06:30:26.976Z,81.81
2019-04-28T06:31:26.973Z,81.05
2019-04-28T06:32:26.965Z,80.15
2019-04-28T06:33:26.974Z,78.67
2019-04-28T06:34:26.961Z,78.40
2019-04-28T06:35:26.937Z,77.89
2019-04-28T06:36:26.945Z,79.36
2019-04-28T06:37:26.934Z,78.20
2019-04-28T06:38:26.937Z,76.76
2019-04-28T06:39:26.921Z,77.68
2019-04-28T06:40:26.906Z,76.76
2019-04-28T06:41:26.931Z,78.61
2019-04-28T06:42:26.904Z,78.03
2019-04-28T06:43:26.908Z,77.82
2019-04-28T06:44:26.918Z,78.44
2019-04-28T06:45:26.904Z,77.78
2019-04-28T06:46:26.897Z,78.37
2019-04-28T06:47:26.893Z,79.54
2019-04-28T06:48:26.890Z,79.75
2019-04-28T06:49:26.874Z,80.16
2019-04-28T06:50:26.874Z,79.58
2019-04-28T06:51:26.857Z,81.47
2019-04-28T06:52:26.850Z,81.74
2019-04-28T06:53:26.863Z,81.12
2019-04-28T06:54:26.839Z,80.05
2019-04-28T06:55:26.827Z,80.16
2019-04-28T06:56:26.823Z,80.05
2019-04-28T06:57:26.824Z,80.61
2019-04-28T06:58:26.888Z,80.88
2019-04-28T06:59:26.811Z,81.49
2019-04-28T07:00:26.801Z,81.29
2019-04-28T07:01:26.793Z,80.57
2019-04-28T07:02:26.803Z,80.57
2019-04-28T07:03:26.814Z,81.12
2019-04-28T07:04:26.785Z,82.11
2019-04-28T07:05:26.779Z,83.04
2019-04-28T07:06:26.773Z,82.42
2019-04-28T07:07:26.760Z,81.29
2019-04-28T07:08:26.759Z,80.67
2019-04-28T07:09:26.833Z,80.71
2019-04-28T07:10:26.741Z,80.98
2019-04-28T07:11:26.732Z,80.30
2019-04-28T07:12:26.753Z,80.98
2019-04-28T07:13:26.744Z,81.39
2019-04-28T07:14:26.784Z,81.53
2019-04-28T07:15:26.728Z,81.33
2019-04-28T07:16:26.722Z,81.23
2019-04-28T07:17:26.712Z,80.51
2019-04-28T07:18:26.719Z,81.84
2019-04-28T07:19:26.712Z,81.53
2019-04-28T07:20:26.693Z,82.15
2019-04-28T07:21:26.684Z,81.91
2019-04-28T07:22:26.677Z,81.09
2019-04-28T07:23:26.671Z,81.25
2019-04-28T07:24:26.674Z,80.43
2019-04-28T07:25:26.660Z,80.63
2019-04-28T07:26:26.668Z,80.43
2019-04-28T07:27:26.643Z,79.71
2019-04-28T07:28:26.648Z,79.75
2019-04-28T07:29:26.641Z,80.47
2019-04-28T07:30:26.618Z,79.71
2019-04-28T07:31:26.610Z,79.64
2019-04-28T07:32:26.609Z,80.81
2019-04-28T07:33:35.920Z,81.19
2019-04-28T07:34:28.605Z,80.16
2019-04-28T07:35:26.585Z,78.99
2019-04-28T07:36:26.577Z,79.09
2019-04-28T07:37:26.572Z,79.61
2019-04-28T07:38:26.562Z,78.92
2019-04-28T07:39:26.576Z,79.81
2019-04-28T07:40:26.554Z,79.30
2019-04-28T07:41:26.550Z,78.27
2019-04-28T07:42:26.545Z,78.75
2019-04-28T07:43:26.544Z,78.23
2019-04-28T07:44:26.536Z,78.54
2019-04-28T07:45:26.515Z,78.75
2019-04-28T07:46:26.504Z,78.33
2019-04-28T07:47:26.497Z,77.82
2019-04-28T07:48:26.488Z,78.61
2019-04-28T07:49:26.530Z,78.20
2019-04-28T07:50:26.472Z,77.48
2019-04-28T07:51:26.465Z,77.17
2019-04-28T07:52:26.456Z,76.42
2019-04-28T07:53:26.448Z,76.97
2019-04-28T07:54:26.452Z,78.81
2019-04-28T07:55:26.432Z,76.82
2019-04-28T07:56:26.425Z,77.85
2019-04-28T07:57:26.434Z,76.89
2019-04-28T07:58:26.417Z,74.60
2019-04-28T07:59:26.417Z,69.55
2019-04-28T08:00:26.396Z,66.90
2019-04-28T08:01:26.385Z,65.58
2019-04-28T08:02:26.382Z,63.68
2019-04-28T08:03:26.469Z,61.40
2019-04-28T08:04:26.380Z,64.65
2019-04-28T08:05:26.364Z,66.28
2019-04-28T08:06:27.063Z,63.82
2019-04-28T08:07:27.336Z,62.54
2019-04-28T08:08:26.362Z,61.83
2019-04-28T08:09:26.367Z,64.58
2019-04-28T08:10:26.375Z,65.50
2019-04-28T08:11:26.335Z,68.01
2019-04-28T08:12:26.330Z,68.15
2019-04-28T08:13:26.327Z,67.50
2019-04-28T08:14:26.314Z,68.28
2019-04-28T08:15:26.328Z,70.36
2019-04-28T08:16:26.311Z,70.47
2019-04-28T08:17:26.305Z,71.39
2019-04-28T08:18:26.302Z,68.25
2019-04-28T08:19:26.320Z,66.90
2019-04-28T08:20:26.301Z,64.59
2019-04-28T08:21:26.277Z,63.90
2019-04-28T08:22:26.278Z,64.65
2019-04-28T08:23:26.319Z,65.74
2019-04-28T08:24:26.311Z,64.12
2019-04-28T08:25:26.271Z,61.63
2019-04-28T08:26:26.252Z,58.89
2019-04-28T08:27:26.258Z,57.81
2019-04-28T08:28:26.275Z,56.75
2019-04-28T08:29:26.255Z,56.67
2019-04-28T08:30:26.279Z,58.39
2019-04-28T08:31:26.263Z,62.42
2019-04-28T08:32:26.319Z,61.16
2019-04-28T08:33:26.264Z,60.39
2019-04-28T08:34:27.038Z,60.73
2019-04-28T08:35:26.691Z,61.71
2019-04-28T08:36:26.261Z,61.83
2019-04-28T08:37:26.442Z,60.99
2019-04-28T08:38:26.333Z,62.24
2019-04-28T08:39:26.823Z,64.37
2019-04-28T08:40:27.358Z,64.58
2019-04-28T08:41:26.424Z,64.58
2019-04-28T08:42:26.213Z,66.21
2019-04-28T08:43:26.240Z,66.08
2019-04-28T08:44:26.142Z,64.78
2019-04-28T08:45:26.161Z,66.25
2019-04-28T08:46:26.129Z,66.14
2019-04-28T08:47:26.112Z,66.96
2019-04-28T08:48:26.191Z,66.17
2019-04-28T08:49:27.041Z,66.64
2019-04-28T08:50:26.167Z,67.73
2019-04-28T08:51:26.435Z,68.48
2019-04-28T08:52:26.117Z,69.71
2019-04-28T08:53:26.367Z,70.64
2019-04-28T08:54:26.170Z,70.87
2019-04-28T08:55:26.084Z,71.08
2019-04-28T08:56:26.069Z,70.56
2019-04-28T08:57:26.038Z,70.73
2019-04-28T08:58:26.035Z,72.03
2019-04-28T08:59:26.046Z,70.50
2019-04-28T09:00:26.272Z,68.49
2019-04-28T09:01:26.170Z,68.28
2019-04-28T09:02:26.138Z,68.52
2019-04-28T09:03:26.255Z,70.09
2019-04-28T09:04:26.297Z,70.32
2019-04-28T09:05:27.046Z,70.73
2019-04-28T09:06:26.095Z,69.89
2019-04-28T09:07:26.240Z,69.54
2019-04-28T09:08:26.006Z,68.93
2019-04-28T09:09:26.118Z,68.52
2019-04-28T09:10:26.218Z,68.11
2019-04-28T09:11:26.039Z,68.73
2019-04-28T09:12:26.066Z,67.70
2019-04-28T09:13:26.807Z,68.32
2019-04-28T09:14:26.152Z,66.98
2019-04-28T09:15:25.994Z,68.11
2019-04-28T09:16:26.048Z,68.73
2019-04-28T09:17:26.155Z,68.11
2019-04-28T09:18:26.176Z,68.38
2019-04-28T09:19:26.186Z,66.64
2019-04-28T09:20:26.136Z,67.13
2019-04-28T09:21:25.971Z,64.37
2019-04-28T09:22:25.998Z,64.11
2019-04-28T09:23:25.927Z,63.53
2019-04-28T09:24:25.892Z,63.73
2019-04-28T09:25:26.073Z,63.83
2019-04-28T09:26:26.045Z,65.50
2019-04-28T09:27:25.995Z,65.70
2019-04-28T09:28:25.894Z,65.77
2019-04-28T09:29:25.874Z,66.48
2019-04-28T09:30:25.868Z,66.28
2019-04-28T09:31:25.964Z,66.28
2019-04-28T09:32:26.013Z,66.10
2019-04-28T09:33:25.929Z,66.44
2019-04-28T09:34:28.419Z,66.95
2019-04-28T09:35:27.025Z,67.97
2019-04-28T09:36:25.856Z,66.44
2019-04-28T09:37:25.820Z,68.25
2019-04-28T09:38:25.820Z,67.13
2019-04-28T09:39:25.999Z,66.20
2019-04-28T09:40:25.806Z,66.24
2019-04-28T09:41:25.810Z,66.88
2019-04-28T09:42:25.835Z,68.41
2019-04-28T09:43:25.778Z,68.11
2019-04-28T09:44:25.824Z,67.63
2019-04-28T09:45:25.840Z,68.45
2019-04-28T09:46:26.076Z,68.35
2019-04-28T09:47:25.795Z,68.96
2019-04-28T09:48:26.028Z,68.27
2019-04-28T09:49:25.910Z,69.68
2019-04-28T09:50:26.018Z,69.75
2019-04-28T09:51:25.761Z,67.54
2019-04-28T09:52:25.861Z,68.42
2019-04-28T09:53:25.732Z,66.20
2019-04-28T09:54:25.910Z,66.54
2019-04-28T09:55:25.807Z,66.34
2019-04-28T09:56:25.774Z,68.41
2019-04-28T09:57:25.715Z,66.98
2019-04-28T09:58:25.724Z,68.28
2019-04-28T09:59:25.714Z,68.38
2019-04-28T10:00:25.705Z,68.90
2019-04-28T10:01:25.729Z,66.82
2019-04-28T10:02:25.824Z,68.01
2019-04-28T10:03:25.689Z,66.25
2019-04-28T10:04:25.935Z,64.61
2019-04-28T10:05:25.657Z,64.40
2019-04-28T10:06:25.682Z,64.71
2019-04-28T10:07:25.639Z,64.37
2019-04-28T10:08:25.666Z,64.64
2019-04-28T10:09:25.651Z,65.56
2019-04-28T10:10:25.627Z,66.17
2019-04-28T10:11:30.729Z,65.73
2019-04-28T10:12:27.676Z,66.17
2019-04-28T10:13:26.702Z,66.28
2019-04-28T10:14:25.655Z,66.99
2019-04-28T10:15:25.703Z,68.63
2019-04-28T10:16:25.606Z,70.06
2019-04-28T10:17:25.567Z,68.29
2019-04-28T10:18:26.552Z,68.29
2019-04-28T10:19:25.546Z,67.07
2019-04-28T10:20:25.546Z,68.26
2019-04-28T10:21:25.556Z,68.77
2019-04-28T10:22:25.518Z,67.00
2019-04-28T10:23:25.516Z,64.65
2019-04-28T10:24:25.508Z,66.28
2019-04-28T10:25:25.510Z,67.03
2019-04-28T10:26:25.501Z,68.01
2019-04-28T10:27:25.513Z,71.49
2019-04-28T10:28:25.490Z,68.84
2019-04-28T10:29:25.482Z,66.75
2019-04-28T10:30:25.471Z,66.21
2019-04-28T10:31:25.465Z,66.18
2019-04-28T10:32:25.464Z,69.24
2019-04-28T10:33:25.465Z,66.08
2019-04-28T10:34:25.455Z,66.18
2019-04-28T10:35:25.441Z,65.98
2019-04-28T10:36:25.426Z,65.95
2019-04-28T10:37:25.439Z,66.86
2019-04-28T10:38:25.410Z,65.92
2019-04-28T10:39:25.423Z,66.05
2019-04-28T10:40:25.402Z,66.42
2019-04-28T10:41:25.408Z,66.42
2019-04-28T10:42:25.396Z,65.51
2019-04-28T10:43:25.386Z,63.70
2019-04-28T10:44:25.407Z,63.19
2019-04-28T10:45:25.359Z,63.81
2019-04-28T10:46:25.353Z,64.08
2019-04-28T10:47:25.358Z,64.72
2019-04-28T10:48:25.345Z,66.46
2019-04-28T10:49:25.331Z,66.46
2019-04-28T10:50:25.417Z,68.09
2019-04-28T10:51:25.337Z,66.77
2019-04-28T10:52:25.338Z,66.97
2019-04-28T10:53:25.307Z,66.28
2019-04-28T10:54:25.295Z,67.21
2019-04-28T10:55:25.306Z,68.02
2019-04-28T10:56:25.279Z,68.02
2019-04-28T10:57:25.305Z,68.94
2019-04-28T10:58:25.281Z,70.61
2019-04-28T10:59:25.264Z,68.87
2019-04-28T11:00:25.275Z,71.87
2019-04-28T11:01:25.273Z,73.44
2019-04-28T11:02:25.276Z,70.98
2019-04-28T11:03:25.240Z,71.56
2019-04-28T11:04:25.247Z,70.95
2019-04-28T11:05:25.238Z,69.38
2019-04-28T11:06:25.230Z,70.20
2019-04-28T11:07:25.233Z,67.85
2019-04-28T11:08:25.215Z,68.26
2019-04-28T11:09:30.703Z,70.71
2019-04-28T11:10:27.199Z,70.30
2019-04-28T11:11:25.197Z,70.13
2019-04-28T11:12:25.205Z,70.47
2019-04-28T11:13:25.170Z,72.45
2019-04-28T11:14:25.167Z,74.08
2019-04-28T11:15:25.160Z,71.22
2019-04-28T11:16:25.148Z,74.53
2019-04-28T11:17:25.180Z,74.63
2019-04-28T11:18:25.145Z,75.45
2019-04-28T11:19:25.124Z,76.17
2019-04-28T11:20:25.363Z,74.39
2019-04-28T11:21:26.099Z,73.88
2019-04-28T11:22:25.686Z,73.78
2019-04-28T11:23:25.109Z,72.20
2019-04-28T11:24:25.106Z,72.11
2019-04-28T11:25:25.083Z,72.92
2019-04-28T11:26:25.093Z,73.91
2019-04-28T11:27:25.084Z,72.85
2019-04-28T11:28:25.100Z,75.97
2019-04-28T11:29:25.083Z,78.78
2019-04-28T11:30:25.077Z,78.06
2019-04-28T11:31:25.065Z,78.36
2019-04-28T11:32:25.057Z,79.19
2019-04-28T11:33:25.088Z,79.70
2019-04-28T11:34:25.061Z,79.70
2019-04-28T11:35:25.059Z,79.97
2019-04-28T11:36:25.075Z,76.07
2019-04-28T11:37:25.078Z,75.15
2019-04-28T11:38:25.077Z,75.25
2019-04-28T11:39:25.049Z,73.91
2019-04-28T11:40:25.037Z,74.53
2019-04-28T11:41:25.030Z,74.53
2019-04-28T11:42:25.038Z,76.65
2019-04-28T11:43:25.027Z,75.66
2019-04-28T11:44:25.011Z,73.78
2019-04-28T11:45:25.002Z,72.89
2019-04-28T11:46:24.989Z,73.16
2019-04-28T11:47:24.981Z,69.93
2019-04-28T11:48:24.993Z,72.41
2019-04-28T11:49:24.973Z,72.62
2019-04-28T11:50:24.964Z,68.70
2019-04-28T11:51:24.958Z,66.66
2019-04-28T11:52:24.946Z,68.84
2019-04-28T11:53:24.955Z,68.30
2019-04-28T11:54:24.937Z,66.69
2019-04-28T11:55:57.418Z,64.17
2019-04-28T11:56:24.920Z,66.45
2019-04-28T11:57:24.914Z,65.91
2019-04-28T11:58:24.922Z,66.49
2019-04-28T11:59:24.896Z,63.86
2019-04-28T12:00:24.955Z,62.71
2019-04-28T12:01:24.906Z,63.83
2019-04-28T12:02:24.918Z,59.21
2019-04-28T12:03:24.924Z,58.78
2019-04-28T12:04:24.964Z,58.78
2019-04-28T12:05:34.386Z,61.19
2019-04-28T12:06:26.872Z,60.89
2019-04-28T12:07:24.845Z,58.72
2019-04-28T12:08:24.887Z,60.09
2019-04-28T12:09:24.837Z,57.06
2019-04-28T12:10:24.827Z,58.36
2019-04-28T12:11:24.807Z,55.25
2019-04-28T12:12:24.832Z,54.24
2019-04-28T12:13:24.807Z,55.61
2019-04-28T12:14:24.808Z,56.52
2019-04-28T12:15:24.812Z,57.46
2019-04-28T12:16:24.788Z,53.90
2019-04-28T12:17:24.771Z,57.43
2019-04-28T12:18:24.785Z,54.79
2019-04-28T12:19:24.779Z,54.77
2019-04-28T12:20:24.743Z,55.40
2019-04-28T12:21:24.737Z,54.74
2019-04-28T12:22:24.753Z,54.16
2019-04-28T12:23:24.734Z,53.65
2019-04-28T12:24:24.753Z,56.60
2019-04-28T12:25:24.752Z,56.70
2019-04-28T12:26:24.717Z,56.20
2019-04-28T12:27:24.706Z,55.46
2019-04-28T12:28:24.706Z,55.05
2019-04-28T12:29:24.723Z,54.21
2019-04-28T12:30:24.687Z,54.44
2019-04-28T12:31:24.703Z,54.24
2019-04-28T12:32:24.713Z,55.55
2019-04-28T12:33:24.672Z,53.14
2019-04-28T12:34:24.683Z,55.38
2019-04-28T12:35:24.684Z,55.84
2019-04-28T12:36:24.673Z,56.45
2019-04-28T12:37:24.654Z,56.99
2019-04-28T12:38:24.673Z,55.26
2019-04-28T12:39:24.694Z,55.61
2019-04-28T12:40:24.731Z,55.48
2019-04-28T12:41:24.640Z,56.96
2019-04-28T12:42:24.620Z,56.45
2019-04-28T12:43:24.624Z,55.48
2019-04-28T12:44:24.663Z,55.58
2019-04-28T12:45:34.516Z,54.54
2019-04-28T12:46:26.627Z,54.82
2019-04-28T12:47:24.593Z,54.33
2019-04-28T12:48:24.573Z,53.02
2019-04-28T12:49:24.562Z,53.27
2019-04-28T12:50:24.580Z,54.26
2019-04-28T12:51:24.572Z,54.24
2019-04-28T12:52:24.557Z,55.58
2019-04-28T12:53:24.548Z,54.57
2019-04-28T12:54:24.548Z,54.67
2019-04-28T12:55:24.535Z,53.01
2019-04-28T12:56:24.508Z,54.57
2019-04-28T12:57:25.139Z,55.71
2019-04-28T12:58:24.507Z,55.20
2019-04-28T12:59:24.503Z,55.23